Time;durP1;ratioP1;P1;durP2;ratioP2;P2;SDS_P1;SDS_P2;PMS_P1;PMS_P2;Temp;Humidity;BMP_temperature;BMP_pressure;BME280_temperature;BME280_humidity;BME280_pressure;Samples;Min_cycle;Max_cycle;Signal;HPM_P1;HPM_P2
2023/04/18 00:00:52;;;;;;;41.42;27.33;;;9.50;99.90;;;;;;5128252;27;20253;-81
2023/04/18 00:03:20;;;;;;;38.22;24.70;;;9.50;99.90;;;;;;5122106;27;20248;-81
2023/04/18 00:05:48;;;;;;;40.08;26.20;;;9.50;99.90;;;;;;5129256;27;20214;-81
2023/04/18 00:08:17;;;;;;;44.83;29.00;;;9.50;99.90;;;;;;5104060;27;20222;-82
2023/04/18 00:10:44;;;;;;;37.58;26.98;;;9.50;99.90;;;;;;5126319;27;20251;-80
2023/04/18 00:13:11;;;;;;;37.97;24.33;;;9.50;99.90;;;;;;5124603;27;20222;-81
2023/04/18 00:15:40;;;;;;;43.85;26.02;;;9.40;99.90;;;;;;5119014;28;20278;-81
2023/04/18 00:18:07;;;;;;;37.05;28.40;;;9.40;99.90;;;;;;5122141;27;20280;-81
2023/04/18 00:20:37;;;;;;;40.28;27.48;;;9.40;99.90;;;;;;5119502;28;20230;-82
2023/04/18 00:23:05;;;;;;;41.92;30.38;;;9.50;99.90;;;;;;5119279;28;20367;-82
2023/04/18 00:25:31;;;;;;;37.63;28.35;;;10.30;99.90;;;;;;5118733;27;20214;-80
2023/04/18 00:28:01;;;;;;;50.47;29.40;;;9.50;99.90;;;;;;5131088;27;20292;-82
2023/04/18 00:30:27;;;;;;;38.33;26.05;;;9.40;99.90;;;;;;5123994;27;20218;-79
2023/04/18 00:32:54;;;;;;;41.30;27.85;;;9.50;99.90;;;;;;5129550;27;20204;-82
2023/04/18 00:35:21;;;;;;;52.97;31.80;;;9.40;99.90;;;;;;5116928;27;20214;-84
2023/04/18 00:37:48;;;;;;;46.00;32.40;;;9.40;99.90;;;;;;5125710;27;20616;-82
2023/04/18 00:40:15;;;;;;;40.22;27.50;;;9.40;99.90;;;;;;5124010;27;20209;-80
2023/04/18 00:42:42;;;;;;;44.40;29.27;;;9.40;99.90;;;;;;5132567;27;20197;-82
2023/04/18 00:45:09;;;;;;;39.38;27.98;;;9.40;99.90;;;;;;5128562;27;20232;-79
2023/04/18 00:47:36;;;;;;;47.78;29.63;;;9.50;99.90;;;;;;5109127;28;20187;-79
2023/04/18 00:50:04;;;;;;;40.65;28.83;;;9.50;99.90;;;;;;5130015;27;20212;-79
2023/04/18 00:52:33;;;;;;;42.70;32.65;;;9.40;99.90;;;;;;5133821;27;20210;-81
2023/04/18 00:55:02;;;;;;;42.28;28.45;;;9.40;99.90;;;;;;5126762;27;20219;-80
2023/04/18 00:57:29;;;;;;;41.22;28.88;;;9.40;99.90;;;;;;5121452;28;20218;-80
2023/04/18 01:00:08;;;;;;;34.17;27.23;;;9.50;99.90;;;;;;5115945;28;20203;-80
2023/04/18 01:02:36;;;;;;;42.40;31.15;;;9.50;99.90;;;;;;5132425;27;20429;-82
2023/04/18 01:05:03;;;;;;;41.00;27.40;;;9.40;99.90;;;;;;5130508;27;20211;-82
2023/04/18 01:07:34;;;;;;;41.63;28.90;;;9.40;99.90;;;;;;5126809;27;20203;-81
2023/04/18 01:10:03;;;;;;;46.22;29.10;;;9.40;99.90;;;;;;5127856;27;20541;-81
2023/04/18 01:12:30;;;;;;;39.78;28.67;;;9.40;99.90;;;;;;5134785;27;20236;-81
2023/04/18 01:14:59;;;;;;;42.83;30.90;;;9.30;99.90;;;;;;5130789;27;20213;-81
2023/04/18 01:17:27;;;;;;;39.92;27.92;;;9.40;99.90;;;;;;5125965;27;20353;-83
2023/04/18 01:19:55;;;;;;;44.83;31.85;;;9.30;99.90;;;;;;5117856;28;20235;-82
2023/04/18 01:22:23;;;;;;;46.35;30.08;;;9.30;99.90;;;;;;5131020;27;20203;-81
2023/04/18 01:24:50;;;;;;;46.90;28.60;;;9.30;99.90;;;;;;5112216;27;20386;-80
2023/04/18 01:27:16;;;;;;;45.47;28.77;;;9.40;99.90;;;;;;5127712;27;20219;-79
2023/04/18 01:29:43;;;;;;;42.78;29.58;;;9.30;99.90;;;;;;5108278;28;20208;-80
2023/04/18 01:32:10;;;;;;;40.67;29.60;;;9.30;99.90;;;;;;5127947;27;20207;-80
2023/04/18 01:34:38;;;;;;;43.65;29.38;;;9.20;99.90;;;;;;5123600;28;20211;-82
2023/04/18 01:37:05;;;;;;;47.63;32.35;;;9.20;99.90;;;;;;5120505;28;20199;-83
2023/04/18 01:39:31;;;;;;;46.45;30.83;;;9.20;99.90;;;;;;5118515;28;20235;-80
2023/04/18 01:42:00;;;;;;;45.70;32.55;;;9.20;99.90;;;;;;5138606;28;20211;-82
2023/04/18 01:44:27;;;;;;;39.05;28.67;;;9.10;99.90;;;;;;5137600;28;20208;-80
2023/04/18 01:46:53;;;;;;;38.08;27.73;;;9.20;99.90;;;;;;5140853;27;20200;-83
2023/04/18 01:49:20;;;;;;;41.13;28.45;;;9.20;99.90;;;;;;5111111;27;20402;-81
2023/04/18 01:51:47;;;;;;;50.17;30.10;;;9.20;99.90;;;;;;5112318;27;20259;-79
2023/04/18 01:54:14;;;;;;;44.05;30.48;;;9.20;99.90;;;;;;5124027;27;20218;-81
2023/04/18 01:56:42;;;;;;;33.83;28.40;;;9.20;99.90;;;;;;5143341;27;20213;-83
2023/04/18 01:59:10;;;;;;;43.05;30.17;;;9.20;99.90;;;;;;5132052;27;20260;-81
2023/04/18 02:01:37;;;;;;;40.20;28.77;;;9.10;99.90;;;;;;5114662;27;20203;-82
2023/04/18 02:04:04;;;;;;;43.17;28.30;;;9.10;99.90;;;;;;5142572;27;20278;-83
2023/04/18 02:06:32;;;;;;;42.90;29.95;;;9.10;99.90;;;;;;5140826;27;20402;-80
2023/04/18 02:08:59;;;;;;;48.03;28.20;;;9.10;99.90;;;;;;5134972;27;20215;-81
2023/04/18 02:11:26;;;;;;;39.10;29.58;;;9.10;99.90;;;;;;5133589;27;20211;-82
2023/04/18 02:13:54;;;;;;;42.63;28.70;;;9.10;99.90;;;;;;5133544;27;20203;-79
2023/04/18 02:16:21;;;;;;;38.72;28.48;;;9.10;99.90;;;;;;5124509;27;20240;-81
2023/04/18 02:18:48;;;;;;;37.28;27.88;;;9.10;99.90;;;;;;5130096;27;20237;-80
2023/04/18 02:21:17;;;;;;;39.70;27.30;;;9.10;99.90;;;;;;5134164;27;20211;-81
2023/04/18 02:23:44;;;;;;;42.15;28.73;;;9.10;99.90;;;;;;5133090;27;20237;-81
2023/04/18 02:26:11;;;;;;;38.65;26.30;;;9.10;99.90;;;;;;5136445;27;20379;-81
2023/04/18 02:28:38;;;;;;;37.65;27.27;;;9.20;99.90;;;;;;5132783;27;20200;-82
2023/04/18 02:31:13;;;;;;;33.30;25.02;;;9.10;99.90;;;;;;5115184;27;20250;-82
2023/04/18 02:33:42;;;;;;;39.00;27.70;;;9.10;99.90;;;;;;5124349;27;20520;-81
2023/04/18 02:36:10;;;;;;;45.17;28.02;;;9.10;99.90;;;;;;5112098;27;20381;-82
2023/04/18 02:38:40;;;;;;;36.83;28.05;;;9.10;99.90;;;;;;5130338;27;20553;-81
2023/04/18 02:41:07;;;;;;;36.95;26.30;;;9.30;99.90;;;;;;5140105;27;20194;-80
2023/04/18 02:43:35;;;;;;;40.20;26.90;;;9.10;99.90;;;;;;5115497;27;20237;-81
2023/04/18 02:46:02;;;;;;;40.90;28.25;;;9.10;99.90;;;;;;5134451;27;20207;-80
2023/04/18 02:48:29;;;;;;;38.97;24.98;;;9.10;99.90;;;;;;5125221;27;20380;-81
2023/04/18 02:51:07;;;;;;;51.08;30.25;;;9.10;99.90;;;;;;5135401;27;20230;-82
2023/04/18 02:53:34;;;;;;;41.60;27.88;;;9.10;99.90;;;;;;5125388;27;20190;-81
2023/04/18 02:56:01;;;;;;;40.05;26.75;;;9.00;99.90;;;;;;5128742;27;20214;-81
2023/04/18 02:58:28;;;;;;;43.97;29.25;;;9.00;99.90;;;;;;5148483;27;20209;-79
2023/04/18 03:00:57;;;;;;;37.25;25.33;;;9.10;99.90;;;;;;5150085;27;20193;-81
2023/04/18 03:03:23;;;;;;;39.85;27.15;;;9.00;99.90;;;;;;5127531;27;20448;-82
2023/04/18 03:05:50;;;;;;;41.35;27.52;;;9.00;99.90;;;;;;5141712;27;20521;-82
2023/04/18 03:08:17;;;;;;;38.90;26.17;;;9.00;99.90;;;;;;5136862;27;20217;-80
2023/04/18 03:10:46;;;;;;;37.95;27.23;;;9.00;99.90;;;;;;5129301;27;20213;-81
2023/04/18 03:13:14;;;;;;;40.95;26.85;;;9.00;99.90;;;;;;5129496;27;20207;-80
2023/04/18 03:15:41;;;;;;;37.63;25.70;;;9.00;99.90;;;;;;5142324;27;20206;-81
2023/04/18 03:18:11;;;;;;;39.35;27.15;;;8.90;99.90;;;;;;5134644;27;20231;-80
2023/04/18 03:20:39;;;;;;;36.90;25.25;;;9.00;99.90;;;;;;5127120;27;20209;-82
2023/04/18 03:23:07;;;;;;;42.67;28.42;;;9.00;99.90;;;;;;5128635;27;20251;-80
2023/04/18 03:25:34;;;;;;;40.83;27.73;;;8.90;99.90;;;;;;5120743;28;20214;-83
2023/04/18 03:28:01;;;;;;;38.67;27.35;;;8.90;99.90;;;;;;5129657;27;20219;-81
2023/04/18 03:30:28;;;;;;;37.33;29.42;;;8.90;99.90;;;;;;5135424;27;20256;-81
2023/04/18 03:32:57;;;;;;;36.75;23.55;;;8.90;99.90;;;;;;5126301;27;20377;-79
2023/04/18 03:35:24;;;;;;;39.72;27.25;;;9.00;99.90;;;;;;5135280;27;20267;-81
2023/04/18 03:37:51;;;;;;;38.05;26.85;;;9.00;99.90;;;;;;5133612;27;20215;-79
2023/04/18 03:40:18;;;;;;;39.80;25.45;;;9.00;99.90;;;;;;5121620;27;20205;-79
2023/04/18 03:42:46;;;;;;;36.95;23.00;;;8.90;99.90;;;;;;5133180;27;20398;-81
2023/04/18 03:45:15;;;;;;;39.33;26.38;;;8.90;99.90;;;;;;5112535;27;20721;-81
2023/04/18 03:47:42;;;;;;;35.20;25.60;;;9.00;99.90;;;;;;5128368;27;20215;-81
2023/04/18 03:50:09;;;;;;;34.65;25.98;;;9.00;99.90;;;;;;5138148;27;20197;-83
2023/04/18 03:52:36;;;;;;;40.55;26.00;;;9.00;99.90;;;;;;5140067;27;20248;-80
2023/04/18 03:55:04;;;;;;;41.22;25.33;;;8.90;99.90;;;;;;5129608;27;20289;-83
2023/04/18 03:57:31;;;;;;;38.35;27.98;;;8.90;99.90;;;;;;5129576;27;20659;-81
2023/04/18 03:59:58;;;;;;;40.28;28.40;;;9.00;99.90;;;;;;5128444;27;20236;-80
2023/04/18 04:02:25;;;;;;;39.47;28.25;;;8.90;99.90;;;;;;5130125;27;20231;-83
2023/04/18 04:04:52;;;;;;;34.70;24.98;;;8.90;99.90;;;;;;5147341;27;20183;-84
2023/04/18 04:07:19;;;;;;;39.38;27.10;;;9.00;99.90;;;;;;5134866;27;20248;-80
2023/04/18 04:09:46;;;;;;;41.92;27.15;;;9.00;99.90;;;;;;5130008;27;20436;-82
2023/04/18 04:12:13;;;;;;;44.42;28.45;;;9.00;99.90;;;;;;5121448;27;20199;-83
2023/04/18 04:14:40;;;;;;;49.03;30.80;;;9.00;99.90;;;;;;5133833;27;20238;-82
2023/04/18 04:17:10;;;;;;;38.45;25.92;;;9.00;99.90;;;;;;5100660;28;20207;-80
2023/04/18 04:19:37;;;;;;;45.17;29.42;;;8.90;99.90;;;;;;5130152;27;20222;-83
2023/04/18 04:22:03;;;;;;;52.67;31.30;;;8.90;99.90;;;;;;5127152;27;20233;-79
2023/04/18 04:24:32;;;;;;;52.20;33.83;;;8.90;99.90;;;;;;5126686;27;20368;-82
2023/04/18 04:27:00;;;;;;;43.45;30.73;;;9.00;99.90;;;;;;5126241;27;20259;-81
2023/04/18 04:29:27;;;;;;;44.25;30.13;;;8.90;99.90;;;;;;5128831;27;20213;-81
2023/04/18 04:31:54;;;;;;;43.63;30.63;;;8.90;99.90;;;;;;5113891;27;20203;-81
2023/04/18 04:34:21;;;;;;;47.03;30.90;;;8.90;99.90;;;;;;5110253;28;20204;-81
2023/04/18 04:36:49;;;;;;;41.08;31.02;;;9.00;99.90;;;;;;5110754;27;20210;-80
2023/04/18 04:39:17;;;;;;;40.95;30.15;;;8.90;99.90;;;;;;5136689;27;20472;-81
2023/04/18 04:41:45;;;;;;;46.80;32.75;;;8.90;99.90;;;;;;5123228;27;20223;-81
2023/04/18 04:44:16;;;;;;;44.83;29.95;;;9.00;99.90;;;;;;5115686;27;20243;-82
2023/04/18 04:46:44;;;;;;;43.50;30.50;;;9.00;99.90;;;;;;5135071;27;20230;-84
2023/04/18 04:49:11;;;;;;;46.53;30.90;;;9.00;99.90;;;;;;5107882;27;20242;-81
2023/04/18 04:51:39;;;;;;;57.60;33.28;;;9.00;99.90;;;;;;5127549;27;20221;-83
2023/04/18 04:54:05;;;;;;;45.47;29.75;;;8.90;99.90;;;;;;5136291;27;20213;-82
2023/04/18 04:56:33;;;;;;;50.20;34.08;;;9.00;99.90;;;;;;5138776;27;20204;-81
2023/04/18 04:59:00;;;;;;;42.60;29.00;;;8.90;99.90;;;;;;5134728;28;20226;-80
2023/04/18 05:01:27;;;;;;;52.35;31.83;;;9.00;99.90;;;;;;5137885;27;20211;-83
2023/04/18 05:03:54;;;;;;;44.28;28.02;;;9.00;99.90;;;;;;5135723;27;20239;-84
2023/04/18 05:06:22;;;;;;;42.40;30.30;;;9.00;99.90;;;;;;5126970;27;20233;-83
2023/04/18 05:08:50;;;;;;;39.45;28.30;;;9.00;99.90;;;;;;5119979;28;20212;-82
2023/04/18 05:11:17;;;;;;;41.92;29.38;;;9.00;99.90;;;;;;5126812;27;20242;-83
2023/04/18 05:13:45;;;;;;;39.55;27.80;;;9.00;99.90;;;;;;5126220;27;20389;-84
2023/04/18 05:16:13;;;;;;;41.63;26.45;;;9.00;99.90;;;;;;5132726;27;20439;-84
2023/04/18 05:18:41;;;;;;;41.88;29.75;;;9.10;99.90;;;;;;5121447;27;20227;-84
2023/04/18 05:21:09;;;;;;;48.50;29.45;;;9.00;99.90;;;;;;5130440;27;20202;-84
2023/04/18 05:23:36;;;;;;;42.83;26.50;;;9.00;99.90;;;;;;5132736;27;20227;-87
2023/04/18 05:26:04;;;;;;;41.35;28.30;;;9.00;99.90;;;;;;5132643;27;20339;-86
2023/04/18 05:28:33;;;;;;;43.30;25.70;;;9.20;99.90;;;;;;5136169;27;20197;-85
2023/04/18 05:31:02;;;;;;;39.92;26.58;;;9.20;99.90;;;;;;5112376;28;20249;-84
2023/04/18 05:33:30;;;;;;;42.63;30.88;;;9.20;99.90;;;;;;5124122;28;20278;-84
2023/04/18 05:35:58;;;;;;;48.75;28.70;;;9.20;99.90;;;;;;5113768;28;20214;-83
2023/04/18 05:38:25;;;;;;;44.25;31.33;;;9.10;99.90;;;;;;5109491;28;20201;-84
2023/04/18 05:40:55;;;;;;;48.15;31.83;;;9.20;99.90;;;;;;5111564;28;20210;-82
2023/04/18 05:43:24;;;;;;;40.28;28.17;;;9.10;99.90;;;;;;5108518;28;20503;-84
2023/04/18 05:45:51;;;;;;;48.28;29.27;;;9.20;99.90;;;;;;5128209;28;20203;-81
2023/04/18 05:48:22;;;;;;;45.00;29.70;;;9.20;99.90;;;;;;5131990;28;20481;-81
2023/04/18 05:50:52;;;;;;;48.17;29.88;;;9.30;99.90;;;;;;5112729;28;20372;-84
2023/04/18 05:53:24;;;;;;;46.45;29.02;;;9.30;99.90;;;;;;5133777;28;20211;-84
2023/04/18 05:55:56;;;;;;;43.50;29.33;;;9.40;99.90;;;;;;5107127;28;20278;-85
2023/04/18 05:58:24;;;;;;;39.78;28.00;;;9.40;99.90;;;;;;5126104;28;20199;-85
2023/04/18 06:00:52;;;;;;;40.90;28.30;;;9.50;99.90;;;;;;5125482;28;20199;-84
2023/04/18 06:03:20;;;;;;;40.20;28.60;;;9.50;99.90;;;;;;5097252;28;20207;-85
2023/04/18 06:05:47;;;;;;;42.65;27.85;;;9.40;99.90;;;;;;5136642;28;20242;-85
2023/04/18 06:08:17;;;;;;;41.35;29.05;;;9.40;99.90;;;;;;5132871;28;20211;-84
2023/04/18 06:10:44;;;;;;;43.17;26.92;;;9.40;99.90;;;;;;5127945;28;20204;-84
2023/04/18 06:13:14;;;;;;;43.22;27.70;;;9.40;99.90;;;;;;5126914;28;20230;-84
2023/04/18 06:15:42;;;;;;;43.45;26.13;;;9.40;99.90;;;;;;5107243;28;20216;-84
2023/04/18 06:18:09;;;;;;;40.97;28.58;;;9.30;99.90;;;;;;5113016;28;20206;-83
2023/04/18 06:20:38;;;;;;;40.53;29.08;;;9.30;99.90;;;;;;5128046;28;20716;-83
2023/04/18 06:23:07;;;;;;;35.25;24.63;;;9.30;99.90;;;;;;5126603;28;20195;-84
2023/04/18 06:25:41;;;;;;;45.80;27.95;;;9.30;99.90;;;;;;5141565;27;20198;-86
2023/04/18 06:28:08;;;;;;;37.05;27.60;;;9.30;99.90;;;;;;5134937;28;20253;-83
2023/04/18 06:30:35;;;;;;;35.40;25.02;;;9.30;99.90;;;;;;5137927;28;20207;-83
2023/04/18 06:33:02;;;;;;;33.58;25.60;;;9.20;99.90;;;;;;5129427;27;20208;-85
2023/04/18 06:35:30;;;;;;;36.35;25.30;;;9.30;99.90;;;;;;5143679;27;20198;-85
2023/04/18 06:37:57;;;;;;;40.60;28.23;;;9.40;99.90;;;;;;5150702;27;20211;-84
2023/04/18 06:40:25;;;;;;;40.85;26.20;;;9.40;99.90;;;;;;5158161;27;20240;-84
2023/04/18 06:42:52;;;;;;;40.63;25.08;;;9.40;99.90;;;;;;5154711;27;20219;-84
2023/04/18 06:45:21;;;;;;;37.17;24.90;;;9.40;99.90;;;;;;5142176;27;20184;-82
2023/04/18 06:48:09;;;;;;;37.70;26.50;;;9.40;99.90;;;;;;5148810;27;20184;-83
2023/04/18 06:50:43;;;;;;;40.20;24.27;;;9.40;99.90;;;;;;5139162;27;20201;-84
2023/04/18 06:53:19;;;;;;;39.30;25.20;;;9.40;99.90;;;;;;5142627;27;20300;-82
2023/04/18 06:55:46;;;;;;;34.13;23.45;;;9.50;99.90;;;;;;5125808;27;20188;-83
2023/04/18 06:58:16;;;;;;;33.40;22.02;;;9.50;99.90;;;;;;5145417;27;20181;-84
2023/04/18 07:00:50;;;;;;;35.85;26.52;;;9.70;99.90;;;;;;5123886;27;20262;-83
2023/04/18 07:03:19;;;;;;;40.03;24.20;;;9.60;99.90;;;;;;5135892;27;20199;-84
2023/04/18 07:05:49;;;;;;;33.15;22.13;;;9.50;99.90;;;;;;5123121;28;20235;-83
2023/04/18 07:08:17;;;;;;;44.20;26.02;;;9.90;99.90;;;;;;5128469;27;20423;-85
2023/04/18 07:10:44;;;;;;;33.53;22.48;;;9.60;99.90;;;;;;5108825;27;20203;-84
2023/04/18 07:13:12;;;;;;;31.35;22.50;;;9.70;99.90;;;;;;5113960;27;20208;-83
2023/04/18 07:15:44;;;;;;;32.03;22.02;;;9.70;99.90;;;;;;5113130;28;20202;-84
2023/04/18 07:18:11;;;;;;;35.35;22.15;;;9.70;99.90;;;;;;5123393;27;20219;-84
2023/04/18 07:20:50;;;;;;;31.98;21.70;;;9.70;99.90;;;;;;5132661;27;20665;-82
2023/04/18 07:23:17;;;;;;;33.70;21.85;;;9.80;99.90;;;;;;5111804;28;20208;-84
2023/04/18 07:25:45;;;;;;;32.10;22.30;;;9.80;99.90;;;;;;5126407;27;20247;-83
2023/04/18 07:28:12;;;;;;;29.55;21.05;;;9.70;99.90;;;;;;5130646;27;20215;-83
2023/04/18 07:30:39;;;;;;;29.88;20.38;;;9.90;99.90;;;;;;5121976;28;20396;-82
2023/04/18 07:33:06;;;;;;;28.33;21.02;;;9.90;99.90;;;;;;5122490;28;20231;-82
2023/04/18 07:35:34;;;;;;;24.70;18.27;;;9.90;99.90;;;;;;5121791;28;20206;-85
2023/04/18 07:38:01;;;;;;;25.42;19.70;;;9.90;99.90;;;;;;5133883;27;20253;-83
2023/04/18 07:40:29;;;;;;;29.95;19.92;;;9.90;99.90;;;;;;5120842;27;20298;-84
2023/04/18 07:42:57;;;;;;;26.45;20.33;;;10.20;99.90;;;;;;5127477;27;20205;-84
2023/04/18 07:45:25;;;;;;;21.98;17.70;;;10.20;99.90;;;;;;5128642;27;20215;-84
2023/04/18 07:47:53;;;;;;;25.38;17.98;;;9.90;99.90;;;;;;5111827;27;20250;-84
2023/04/18 07:50:21;;;;;;;22.35;17.08;;;10.00;99.90;;;;;;5134272;27;20235;-85
2023/04/18 07:52:48;;;;;;;21.55;15.98;;;10.00;99.90;;;;;;5125975;27;20653;-84
2023/04/18 07:55:15;;;;;;;23.25;15.60;;;10.00;99.90;;;;;;5129307;27;20205;-84
2023/04/18 07:57:49;;;;;;;18.45;15.50;;;10.10;99.90;;;;;;5132678;27;20219;-83
2023/04/18 08:00:17;;;;;;;18.05;14.80;;;10.10;99.90;;;;;;5127602;27;20219;-82
2023/04/18 08:02:45;;;;;;;21.05;13.93;;;10.20;99.90;;;;;;5132180;27;20205;-82
2023/04/18 08:05:12;;;;;;;17.02;12.18;;;10.10;99.90;;;;;;5106611;27;20209;-82
2023/04/18 08:07:40;;;;;;;19.33;13.68;;;10.10;99.90;;;;;;5132146;27;20201;-84
2023/04/18 08:10:08;;;;;;;17.10;13.73;;;10.20;99.90;;;;;;5134279;27;20212;-83
2023/04/18 08:12:35;;;;;;;15.00;13.18;;;10.20;99.90;;;;;;5113420;27;20274;-83
2023/04/18 08:15:03;;;;;;;16.90;13.75;;;10.30;99.90;;;;;;5128890;27;20199;-83
2023/04/18 08:17:30;;;;;;;16.10;12.18;;;10.40;99.90;;;;;;5137424;27;20208;-83
2023/04/18 08:20:03;;;;;;;16.65;12.32;;;10.50;99.90;;;;;;5121142;27;20291;-82
2023/04/18 08:22:31;;;;;;;16.88;13.38;;;10.40;99.90;;;;;;5133228;27;20541;-83
2023/04/18 08:25:00;;;;;;;16.10;12.73;;;10.50;99.90;;;;;;5131622;27;20209;-83
2023/04/18 08:27:35;;;;;;;16.27;11.55;;;10.60;99.90;;;;;;5138245;27;20220;-82
2023/04/18 08:30:03;;;;;;;19.35;12.73;;;10.60;99.90;;;;;;5120512;27;20209;-83
2023/04/18 08:32:32;;;;;;;19.05;14.07;;;10.80;99.90;;;;;;5105154;27;20525;-83
2023/04/18 08:34:59;;;;;;;16.48;12.18;;;10.90;99.90;;;;;;5131366;27;20198;-83
2023/04/18 08:37:27;;;;;;;19.25;12.20;;;10.90;99.90;;;;;;5120434;27;20304;-82
2023/04/18 08:39:55;;;;;;;15.13;11.45;;;10.80;99.90;;;;;;5109391;28;20225;-82
2023/04/18 08:42:23;;;;;;;16.83;12.27;;;10.80;99.90;;;;;;5136633;27;20245;-82
2023/04/18 08:44:52;;;;;;;18.80;12.07;;;10.80;99.90;;;;;;5139509;27;20213;-84
2023/04/18 08:47:21;;;;;;;15.20;11.50;;;10.90;99.90;;;;;;5110087;28;20194;-82
2023/04/18 08:49:48;;;;;;;14.20;11.68;;;10.90;99.90;;;;;;5111329;27;20208;-82
2023/04/18 08:52:16;;;;;;;20.65;13.18;;;10.70;99.90;;;;;;5105705;28;20217;-81
2023/04/18 08:54:46;;;;;;;14.63;12.15;;;10.60;99.90;;;;;;5133040;27;20211;-82
2023/04/18 08:57:22;;;;;;;18.55;13.15;;;10.60;99.90;;;;;;5125048;27;20508;-83
2023/04/18 08:59:49;;;;;;;22.13;13.70;;;10.50;99.90;;;;;;5119284;27;20220;-82
2023/04/18 09:02:25;;;;;;;17.75;14.13;;;10.60;99.90;;;;;;5130161;27;20422;-82
2023/04/18 09:04:52;;;;;;;17.30;12.95;;;10.70;99.90;;;;;;5128886;27;20244;-83
2023/04/18 09:07:27;;;;;;;21.35;15.32;;;10.80;99.90;;;;;;5138539;27;20200;-82
2023/04/18 09:09:58;;;;;;;22.67;16.13;;;11.30;99.90;;;;;;5127370;27;20192;-83
2023/04/18 09:12:26;;;;;;;18.83;15.18;;;10.80;99.90;;;;;;5122440;28;20551;-83
2023/04/18 09:15:09;;;;;;;21.95;13.60;;;11.00;99.90;;;;;;5141312;27;20215;-82
2023/04/18 09:17:42;;;;;;;20.27;15.15;;;11.30;99.90;;;;;;5151277;27;20200;-81
2023/04/18 09:20:14;;;;;;;19.98;14.77;;;11.40;99.90;;;;;;5136445;27;20253;-82
2023/04/18 09:22:50;;;;;;;22.27;17.15;;;11.50;99.90;;;;;;5137351;27;20247;-83
2023/04/18 09:25:37;;;;;;;24.45;16.70;;;11.70;99.90;;;;;;5135128;27;20295;-82
2023/04/18 09:28:29;;;;;;;22.38;15.90;;;11.60;99.90;;;;;;5132039;27;20212;-83
2023/04/18 09:31:08;;;;;;;31.52;15.43;;;11.60;99.90;;;;;;5131856;27;20209;-83
2023/04/18 09:33:36;;;;;;;20.65;13.80;;;11.70;99.90;;;;;;5123659;27;20431;-82
2023/04/18 09:36:22;;;;;;;18.08;13.55;;;11.70;99.90;;;;;;5127182;28;20209;-83
2023/04/18 09:38:51;;;;;;;20.98;14.80;;;11.70;99.90;;;;;;5138787;28;20264;-82
2023/04/18 09:41:22;;;;;;;19.25;14.65;;;11.80;99.90;;;;;;5123487;28;20225;-82
2023/04/18 09:43:49;;;;;;;21.45;14.30;;;11.50;99.90;;;;;;5114672;28;20200;-82
2023/04/18 09:46:20;;;;;;;24.15;17.08;;;11.70;99.90;;;;;;5121086;28;20209;-81
2023/04/18 09:48:47;;;;;;;21.67;14.32;;;11.90;99.90;;;;;;5135388;28;20201;-83
2023/04/18 09:51:15;;;;;;;24.85;16.08;;;12.00;99.90;;;;;;5111201;28;20213;-82
2023/04/18 09:53:46;;;;;;;21.70;16.38;;;11.90;99.90;;;;;;5129253;28;20197;-84
2023/04/18 09:56:24;;;;;;;20.92;15.90;;;12.00;99.90;;;;;;5132843;28;20433;-82
2023/04/18 09:58:58;;;;;;;18.58;13.93;;;12.10;99.90;;;;;;5122603;28;20509;-82
2023/04/18 10:01:29;;;;;;;20.90;15.85;;;12.30;99.90;;;;;;5128244;28;20216;-83
2023/04/18 10:04:05;;;;;;;19.77;16.23;;;12.20;99.90;;;;;;5107200;28;20229;-83
2023/04/18 10:06:34;;;;;;;20.35;14.55;;;12.10;99.90;;;;;;5124615;27;20229;-82
2023/04/18 10:09:04;;;;;;;18.83;15.45;;;11.90;99.90;;;;;;5135076;27;20205;-83
2023/04/18 10:11:35;;;;;;;22.75;15.27;;;11.90;99.90;;;;;;5132667;27;20256;-83
2023/04/18 10:14:11;;;;;;;29.35;14.70;;;12.00;99.90;;;;;;5114709;27;20209;-82
2023/04/18 10:16:46;;;;;;;21.55;14.32;;;12.10;99.90;;;;;;5115089;27;20200;-83
2023/04/18 10:19:31;;;;;;;22.85;15.93;;;11.70;99.90;;;;;;5132518;27;20194;-82
2023/04/18 10:22:13;;;;;;;22.83;14.77;;;11.70;99.90;;;;;;5107176;28;20212;-82
2023/04/18 10:24:54;;;;;;;21.38;16.27;;;11.60;99.90;;;;;;5123927;27;20211;-82
2023/04/18 10:27:54;;;;;;;22.30;15.23;;;11.60;99.90;;;;;;5127300;27;20202;-84
2023/04/18 10:30:44;;;;;;;19.73;15.80;;;11.70;99.90;;;;;;5135743;27;20220;-83
2023/04/18 10:33:29;;;;;;;24.88;14.73;;;12.00;99.90;;;;;;5132723;27;20205;-81
2023/04/18 10:36:14;;;;;;;19.40;15.82;;;12.10;99.90;;;;;;5134376;27;20205;-83
2023/04/18 10:38:49;;;;;;;19.45;16.02;;;12.30;99.90;;;;;;5134587;27;20208;-85
2023/04/18 10:41:20;;;;;;;24.52;16.70;;;12.20;99.90;;;;;;5121879;28;20248;-83
2023/04/18 10:44:05;;;;;;;23.77;18.13;;;12.10;99.90;;;;;;5130915;27;20447;-81
2023/04/18 10:46:35;;;;;;;23.33;16.33;;;12.10;99.90;;;;;;5128636;27;20228;-82
2023/04/18 10:49:14;;;;;;;23.15;16.83;;;12.10;99.90;;;;;;5124652;27;20205;-84
2023/04/18 10:51:44;;;;;;;22.65;15.35;;;12.20;99.90;;;;;;5128117;27;20196;-83
2023/04/18 10:54:18;;;;;;;22.40;16.02;;;12.60;99.90;;;;;;5127046;27;20219;-81
2023/04/18 10:56:55;;;;;;;21.02;16.02;;;13.40;99.90;;;;;;5121420;27;20226;-82
2023/04/18 10:59:23;;;;;;;16.23;13.07;;;14.20;99.90;;;;;;5133908;27;20249;-83
2023/04/18 11:01:58;;;;;;;19.75;14.57;;;14.20;99.90;;;;;;5139000;27;20247;-82
2023/04/18 11:04:25;;;;;;;21.83;14.10;;;13.80;99.90;;;;;;5148040;27;20203;-84
2023/04/18 11:06:57;;;;;;;19.65;15.32;;;13.40;99.90;;;;;;5143078;27;20209;-81
2023/04/18 11:09:24;;;;;;;19.50;16.25;;;13.50;99.90;;;;;;5128535;27;20225;-83
2023/04/18 11:12:07;;;;;;;23.88;15.63;;;13.50;99.90;;;;;;5139597;27;20528;-82
2023/04/18 11:14:40;;;;;;;22.92;17.63;;;13.70;99.90;;;;;;5113138;27;20213;-83
2023/04/18 11:17:20;;;;;;;22.17;16.88;;;13.80;99.90;;;;;;5128105;27;20232;-80
2023/04/18 11:19:47;;;;;;;17.35;14.13;;;13.80;99.90;;;;;;5128951;27;20248;-81
2023/04/18 11:22:15;;;;;;;17.50;14.20;;;13.60;99.90;;;;;;5125550;27;20535;-82
2023/04/18 11:24:44;;;;;;;22.70;15.40;;;13.80;99.90;;;;;;5112148;27;20205;-81
2023/04/18 11:27:11;;;;;;;35.03;17.40;;;14.00;99.90;;;;;;5122101;27;20213;-82
2023/04/18 11:29:38;;;;;;;20.33;14.73;;;13.80;99.90;;;;;;5128403;27;20209;-82
2023/04/18 11:32:07;;;;;;;27.83;15.75;;;13.80;99.90;;;;;;5125395;27;20250;-82
2023/04/18 11:34:34;;;;;;;18.58;15.15;;;13.80;99.90;;;;;;5129083;27;20228;-82
2023/04/18 11:37:06;;;;;;;25.85;17.08;;;13.80;99.90;;;;;;5120258;27;20246;-81
2023/04/18 11:39:35;;;;;;;24.38;15.98;;;14.00;99.90;;;;;;5127512;27;20251;-80
2023/04/18 11:42:02;;;;;;;23.13;16.85;;;13.80;99.90;;;;;;5128383;27;20278;-81
2023/04/18 11:44:28;;;;;;;21.88;16.20;;;14.20;99.90;;;;;;5121262;28;20269;-83
2023/04/18 11:46:55;;;;;;;23.80;17.75;;;14.00;99.90;;;;;;5126857;27;20202;-81
2023/04/18 11:49:32;;;;;;;21.83;15.45;;;13.60;99.90;;;;;;5135067;27;20216;-82
2023/04/18 11:52:00;;;;;;;24.63;18.65;;;13.30;99.90;;;;;;5121441;28;20213;-81
2023/04/18 11:54:44;;;;;;;23.25;17.58;;;13.00;99.90;;;;;;5128142;27;20205;-84
2023/04/18 11:57:26;;;;;;;24.13;19.20;;;13.00;99.90;;;;;;5129095;27;20217;-82
2023/04/18 11:59:59;;;;;;;23.95;19.73;;;13.10;99.90;;;;;;5112905;27;20254;-81
2023/04/18 12:02:42;;;;;;;25.63;17.30;;;13.10;99.90;;;;;;5125645;27;20284;-82
2023/04/18 12:05:10;;;;;;;17.92;14.75;;;13.20;99.90;;;;;;5120565;27;20194;-83
2023/04/18 12:07:43;;;;;;;23.85;18.10;;;12.80;99.90;;;;;;5125271;27;20611;-82
2023/04/18 12:10:19;;;;;;;27.23;17.20;;;12.90;99.90;;;;;;5116893;28;20273;-83
2023/04/18 12:12:48;;;;;;;23.00;16.15;;;13.10;99.90;;;;;;5107892;27;20209;-80
2023/04/18 12:15:16;;;;;;;22.30;16.48;;;13.30;99.90;;;;;;5110121;28;20202;-81
2023/04/18 12:17:55;;;;;;;28.23;17.15;;;13.20;99.90;;;;;;5109908;28;20206;-83
2023/04/18 12:20:24;;;;;;;22.35;16.65;;;13.20;99.90;;;;;;5129329;27;20229;-81
2023/04/18 12:22:53;;;;;;;24.70;16.73;;;13.40;99.90;;;;;;5120056;27;20205;-82
2023/04/18 12:25:25;;;;;;;20.70;14.70;;;13.40;99.90;;;;;;5135940;27;20211;-82
2023/04/18 12:27:55;;;;;;;21.67;15.90;;;13.50;99.90;;;;;;5126766;27;20217;-83
2023/04/18 12:30:28;;;;;;;23.75;16.98;;;13.40;99.90;;;;;;5110532;28;20379;-83
2023/04/18 12:33:02;;;;;;;22.40;17.85;;;13.30;99.90;;;;;;5126372;27;20193;-82
2023/04/18 12:35:30;;;;;;;26.52;19.15;;;13.20;99.90;;;;;;5111935;28;20268;-82
2023/04/18 12:38:01;;;;;;;25.70;17.42;;;13.20;99.90;;;;;;5128923;27;20197;-82
2023/04/18 12:40:29;;;;;;;24.80;18.60;;;13.20;99.90;;;;;;5133699;27;20228;-83
2023/04/18 12:42:56;;;;;;;21.38;17.27;;;13.50;99.90;;;;;;5135501;27;20244;-82
2023/04/18 12:45:24;;;;;;;22.90;17.20;;;13.80;99.90;;;;;;5137273;27;20430;-82